sensor_id;sensor_type;location;lat;lon;timestamp;P1;durP1;ratioP1;P2;durP2;ratioP2
73239;SDS011;61452;40.054;4.110;2022-07-11T00:03:12;4.40;;;2.25;;
73239;SDS011;61452;40.054;4.110;2022-07-11T00:08:15;3.17;;;2.50;;
73239;SDS011;61452;40.054;4.110;2022-07-11T00:13:17;3.90;;;2.42;;
73239;SDS011;61452;40.054;4.110;2022-07-11T00:18:20;4.15;;;2.10;;
73239;SDS011;61452;40.054;4.110;2022-07-11T00:23:22;2.72;;;2.40;;
73239;SDS011;61452;40.054;4.110;2022-07-11T00:28:25;3.70;;;2.05;;
73239;SDS011;61452;40.054;4.110;2022-07-11T00:33:27;3.08;;;2.50;;
73239;SDS011;61452;40.054;4.110;2022-07-11T00:38:30;2.90;;;2.40;;
73239;SDS011;61452;40.054;4.110;2022-07-11T00:43:36;2.63;;;2.42;;
73239;SDS011;61452;40.054;4.110;2022-07-11T00:48:39;2.85;;;2.30;;
73239;SDS011;61452;40.054;4.110;2022-07-11T00:53:42;5.95;;;2.60;;
73239;SDS011;61452;40.054;4.110;2022-07-11T00:58:46;2.47;;;2.28;;
73239;SDS011;61452;40.054;4.110;2022-07-11T01:03:49;3.83;;;2.47;;
73239;SDS011;61452;40.054;4.110;2022-07-11T01:08:52;5.07;;;2.40;;
73239;SDS011;61452;40.054;4.110;2022-07-11T01:13:55;3.78;;;2.40;;
73239;SDS011;61452;40.054;4.110;2022-07-11T01:18:57;3.53;;;2.63;;
73239;SDS011;61452;40.054;4.110;2022-07-11T01:24:01;5.18;;;2.65;;
73239;SDS011;61452;40.054;4.110;2022-07-11T01:29:09;2.60;;;2.30;;
73239;SDS011;61452;40.054;4.110;2022-07-11T01:34:13;4.63;;;2.70;;
73239;SDS011;61452;40.054;4.110;2022-07-11T01:39:15;4.15;;;2.63;;
73239;SDS011;61452;40.054;4.110;2022-07-11T01:44:18;3.95;;;2.42;;
73239;SDS011;61452;40.054;4.110;2022-07-11T01:49:20;4.35;;;2.50;;
73239;SDS011;61452;40.054;4.110;2022-07-11T01:54:23;4.68;;;2.20;;
73239;SDS011;61452;40.054;4.110;2022-07-11T01:59:25;3.03;;;2.20;;
73239;SDS011;61452;40.054;4.110;2022-07-11T02:04:27;3.08;;;2.60;;
73239;SDS011;61452;40.054;4.110;2022-07-11T02:09:30;3.35;;;2.45;;
73239;SDS011;61452;40.054;4.110;2022-07-11T02:14:32;2.88;;;2.60;;
73239;SDS011;61452;40.054;4.110;2022-07-11T02:19:35;4.00;;;2.70;;
73239;SDS011;61452;40.054;4.110;2022-07-11T02:24:37;3.38;;;2.65;;
73239;SDS011;61452;40.054;4.110;2022-07-11T02:29:39;2.42;;;2.22;;
73239;SDS011;61452;40.054;4.110;2022-07-11T02:34:42;2.95;;;2.30;;
73239;SDS011;61452;40.054;4.110;2022-07-11T02:39:44;3.85;;;2.20;;
73239;SDS011;61452;40.054;4.110;2022-07-11T02:44:47;3.83;;;2.65;;
73239;SDS011;61452;40.054;4.110;2022-07-11T02:49:49;3.92;;;2.63;;
73239;SDS011;61452;40.054;4.110;2022-07-11T02:54:51;3.65;;;2.58;;
73239;SDS011;61452;40.054;4.110;2022-07-11T02:59:54;3.75;;;2.50;;
73239;SDS011;61452;40.054;4.110;2022-07-11T03:04:56;3.40;;;2.63;;
73239;SDS011;61452;40.054;4.110;2022-07-11T03:09:59;2.50;;;2.30;;
73239;SDS011;61452;40.054;4.110;2022-07-11T03:15:01;3.08;;;2.28;;
73239;SDS011;61452;40.054;4.110;2022-07-11T03:20:04;5.30;;;2.55;;
73239;SDS011;61452;40.054;4.110;2022-07-11T03:25:08;2.72;;;2.25;;
73239;SDS011;61452;40.054;4.110;2022-07-11T03:30:10;3.17;;;2.33;;
73239;SDS011;61452;40.054;4.110;2022-07-11T03:35:13;4.07;;;2.28;;
73239;SDS011;61452;40.054;4.110;2022-07-11T03:40:33;4.80;;;2.33;;
73239;SDS011;61452;40.054;4.110;2022-07-11T03:45:36;2.78;;;2.40;;
73239;SDS011;61452;40.054;4.110;2022-07-11T03:50:39;3.03;;;2.20;;
73239;SDS011;61452;40.054;4.110;2022-07-11T03:55:42;3.30;;;2.17;;
73239;SDS011;61452;40.054;4.110;2022-07-11T04:00:44;3.78;;;2.50;;
73239;SDS011;61452;40.054;4.110;2022-07-11T04:05:47;4.05;;;2.30;;
73239;SDS011;61452;40.054;4.110;2022-07-11T04:10:49;3.05;;;2.42;;
73239;SDS011;61452;40.054;4.110;2022-07-11T04:15:52;3.67;;;2.60;;
73239;SDS011;61452;40.054;4.110;2022-07-11T04:20:55;4.00;;;2.30;;
73239;SDS011;61452;40.054;4.110;2022-07-11T04:25:57;3.63;;;2.60;;
73239;SDS011;61452;40.054;4.110;2022-07-11T04:30:59;4.03;;;2.47;;
73239;SDS011;61452;40.054;4.110;2022-07-11T04:36:02;3.40;;;2.40;;
73239;SDS011;61452;40.054;4.110;2022-07-11T04:41:05;2.70;;;2.33;;
73239;SDS011;61452;40.054;4.110;2022-07-11T04:46:08;2.55;;;2.35;;
73239;SDS011;61452;40.054;4.110;2022-07-11T04:51:10;3.22;;;2.35;;
73239;SDS011;61452;40.054;4.110;2022-07-11T04:56:13;4.65;;;2.72;;
73239;SDS011;61452;40.054;4.110;2022-07-11T05:01:15;4.32;;;2.42;;
73239;SDS011;61452;40.054;4.110;2022-07-11T05:06:18;3.53;;;2.70;;
73239;SDS011;61452;40.054;4.110;2022-07-11T05:11:20;5.32;;;2.70;;
73239;SDS011;61452;40.054;4.110;2022-07-11T05:16:29;4.50;;;2.55;;
73239;SDS011;61452;40.054;4.110;2022-07-11T05:21:32;4.00;;;2.40;;
73239;SDS011;61452;40.054;4.110;2022-07-11T05:26:34;4.13;;;2.75;;
73239;SDS011;61452;40.054;4.110;2022-07-11T05:31:38;3.92;;;2.58;;
73239;SDS011;61452;40.054;4.110;2022-07-11T05:36:41;5.55;;;2.60;;
73239;SDS011;61452;40.054;4.110;2022-07-11T05:41:45;3.85;;;2.75;;
73239;SDS011;61452;40.054;4.110;2022-07-11T05:46:47;4.15;;;2.42;;
73239;SDS011;61452;40.054;4.110;2022-07-11T05:51:50;4.00;;;2.63;;
73239;SDS011;61452;40.054;4.110;2022-07-11T05:56:52;5.18;;;2.53;;
73239;SDS011;61452;40.054;4.110;2022-07-11T06:01:55;3.75;;;2.20;;
73239;SDS011;61452;40.054;4.110;2022-07-11T06:06:57;2.88;;;2.38;;
73239;SDS011;61452;40.054;4.110;2022-07-11T06:12:00;3.35;;;2.45;;
73239;SDS011;61452;40.054;4.110;2022-07-11T06:17:02;3.88;;;2.45;;
73239;SDS011;61452;40.054;4.110;2022-07-11T06:22:05;2.78;;;2.30;;
73239;SDS011;61452;40.054;4.110;2022-07-11T06:27:07;2.85;;;2.60;;
73239;SDS011;61452;40.054;4.110;2022-07-11T06:32:10;3.17;;;2.53;;
73239;SDS011;61452;40.054;4.110;2022-07-11T06:37:12;4.13;;;2.42;;
73239;SDS011;61452;40.054;4.110;2022-07-11T06:42:14;4.05;;;2.50;;
73239;SDS011;61452;40.054;4.110;2022-07-11T06:47:22;3.92;;;2.50;;
73239;SDS011;61452;40.054;4.110;2022-07-11T06:52:24;3.28;;;2.33;;
73239;SDS011;61452;40.054;4.110;2022-07-11T06:57:27;3.35;;;2.50;;
73239;SDS011;61452;40.054;4.110;2022-07-11T07:02:29;3.70;;;2.20;;
73239;SDS011;61452;40.054;4.110;2022-07-11T07:07:32;2.60;;;2.28;;
73239;SDS011;61452;40.054;4.110;2022-07-11T07:12:38;3.17;;;2.88;;
73239;SDS011;61452;40.054;4.110;2022-07-11T07:17:41;3.67;;;2.95;;
73239;SDS011;61452;40.054;4.110;2022-07-11T07:22:44;3.05;;;2.63;;
73239;SDS011;61452;40.054;4.110;2022-07-11T07:27:46;4.13;;;2.53;;
73239;SDS011;61452;40.054;4.110;2022-07-11T07:32:49;4.57;;;2.50;;
73239;SDS011;61452;40.054;4.110;2022-07-11T07:37:52;4.43;;;2.42;;
73239;SDS011;61452;40.054;4.110;2022-07-11T07:42:55;3.72;;;2.78;;
73239;SDS011;61452;40.054;4.110;2022-07-11T07:47:58;3.38;;;2.88;;
73239;SDS011;61452;40.054;4.110;2022-07-11T07:53:00;4.07;;;2.65;;
73239;SDS011;61452;40.054;4.110;2022-07-11T07:58:03;3.33;;;2.85;;
73239;SDS011;61452;40.054;4.110;2022-07-11T08:03:05;2.90;;;2.70;;
73239;SDS011;61452;40.054;4.110;2022-07-11T08:08:10;3.67;;;2.50;;
73239;SDS011;61452;40.054;4.110;2022-07-11T08:13:12;4.93;;;2.83;;
73239;SDS011;61452;40.054;4.110;2022-07-11T08:18:14;4.00;;;2.95;;
73239;SDS011;61452;40.054;4.110;2022-07-11T08:23:17;3.22;;;2.60;;
73239;SDS011;61452;40.054;4.110;2022-07-11T08:28:19;3.38;;;2.75;;
73239;SDS011;61452;40.054;4.110;2022-07-11T08:33:22;3.25;;;2.60;;
73239;SDS011;61452;40.054;4.110;2022-07-11T08:38:24;5.05;;;3.00;;
73239;SDS011;61452;40.054;4.110;2022-07-11T08:43:27;3.15;;;2.85;;
73239;SDS011;61452;40.054;4.110;2022-07-11T08:48:34;3.10;;;2.40;;
73239;SDS011;61452;40.054;4.110;2022-07-11T08:53:42;3.35;;;2.90;;
73239;SDS011;61452;40.054;4.110;2022-07-11T08:58:47;4.55;;;2.70;;
73239;SDS011;61452;40.054;4.110;2022-07-11T09:03:56;3.30;;;2.63;;
73239;SDS011;61452;40.054;4.110;2022-07-11T09:09:00;3.78;;;2.58;;
73239;SDS011;61452;40.054;4.110;2022-07-11T09:14:06;3.25;;;2.90;;
73239;SDS011;61452;40.054;4.110;2022-07-11T09:19:29;3.03;;;2.50;;
73239;SDS011;61452;40.054;4.110;2022-07-11T09:24:35;4.50;;;2.88;;
73239;SDS011;61452;40.054;4.110;2022-07-11T09:29:58;5.07;;;2.83;;
73239;SDS011;61452;40.054;4.110;2022-07-11T09:35:21;4.28;;;2.97;;
73239;SDS011;61452;40.054;4.110;2022-07-11T09:40:24;4.78;;;3.05;;
73239;SDS011;61452;40.054;4.110;2022-07-11T09:45:33;4.47;;;2.78;;
73239;SDS011;61452;40.054;4.110;2022-07-11T09:50:37;2.88;;;2.50;;
73239;SDS011;61452;40.054;4.110;2022-07-11T09:55:42;2.70;;;2.50;;
73239;SDS011;61452;40.054;4.110;2022-07-11T10:00:52;3.17;;;2.88;;
73239;SDS011;61452;40.054;4.110;2022-07-11T10:05:55;3.60;;;3.00;;
73239;SDS011;61452;40.054;4.110;2022-07-11T10:10:58;3.35;;;2.50;;
73239;SDS011;61452;40.054;4.110;2022-07-11T10:16:01;3.95;;;2.80;;
73239;SDS011;61452;40.054;4.110;2022-07-11T10:21:22;2.95;;;2.60;;
73239;SDS011;61452;40.054;4.110;2022-07-11T10:31:35;4.43;;;2.58;;
73239;SDS011;61452;40.054;4.110;2022-07-11T10:37:02;3.03;;;2.40;;
73239;SDS011;61452;40.054;4.110;2022-07-11T10:42:06;2.78;;;2.58;;
73239;SDS011;61452;40.054;4.110;2022-07-11T10:52:37;3.58;;;2.58;;
73239;SDS011;61452;40.054;4.110;2022-07-11T11:03:01;3.30;;;2.50;;
73239;SDS011;61452;40.054;4.110;2022-07-11T11:13:34;3.20;;;2.60;;
73239;SDS011;61452;40.054;4.110;2022-07-11T11:18:41;3.63;;;2.90;;
73239;SDS011;61452;40.054;4.110;2022-07-11T11:23:46;2.92;;;2.70;;
73239;SDS011;61452;40.054;4.110;2022-07-11T11:29:05;2.83;;;2.25;;
73239;SDS011;61452;40.054;4.110;2022-07-11T11:34:08;3.50;;;2.60;;
73239;SDS011;61452;40.054;4.110;2022-07-11T11:44:23;2.60;;;2.15;;
73239;SDS011;61452;40.054;4.110;2022-07-11T11:49:25;3.42;;;2.60;;
73239;SDS011;61452;40.054;4.110;2022-07-11T11:54:28;3.42;;;2.25;;
73239;SDS011;61452;40.054;4.110;2022-07-11T11:59:30;3.63;;;2.47;;
73239;SDS011;61452;40.054;4.110;2022-07-11T12:09:38;2.88;;;2.67;;
73239;SDS011;61452;40.054;4.110;2022-07-11T12:14:50;5.68;;;2.50;;
73239;SDS011;61452;40.054;4.110;2022-07-11T12:19:53;3.65;;;2.42;;
73239;SDS011;61452;40.054;4.110;2022-07-11T12:24:55;3.92;;;2.70;;
73239;SDS011;61452;40.054;4.110;2022-07-11T12:29:58;3.40;;;2.60;;
73239;SDS011;61452;40.054;4.110;2022-07-11T12:35:00;3.25;;;2.63;;
73239;SDS011;61452;40.054;4.110;2022-07-11T12:40:14;5.63;;;2.50;;
73239;SDS011;61452;40.054;4.110;2022-07-11T12:45:17;3.90;;;3.25;;
73239;SDS011;61452;40.054;4.110;2022-07-11T12:50:21;3.92;;;3.15;;
73239;SDS011;61452;40.054;4.110;2022-07-11T12:55:29;4.35;;;2.42;;
73239;SDS011;61452;40.054;4.110;2022-07-11T13:00:35;2.45;;;2.15;;
73239;SDS011;61452;40.054;4.110;2022-07-11T13:05:46;3.55;;;2.70;;
73239;SDS011;61452;40.054;4.110;2022-07-11T13:10:52;3.28;;;2.75;;
73239;SDS011;61452;40.054;4.110;2022-07-11T13:16:06;4.30;;;2.92;;
73239;SDS011;61452;40.054;4.110;2022-07-11T13:21:09;3.05;;;2.50;;
73239;SDS011;61452;40.054;4.110;2022-07-11T13:26:12;3.42;;;2.85;;
73239;SDS011;61452;40.054;4.110;2022-07-11T13:31:14;2.97;;;2.67;;
73239;SDS011;61452;40.054;4.110;2022-07-11T13:36:18;3.47;;;2.28;;
73239;SDS011;61452;40.054;4.110;2022-07-11T13:41:20;3.17;;;2.88;;
73239;SDS011;61452;40.054;4.110;2022-07-11T13:46:23;4.57;;;2.92;;
73239;SDS011;61452;40.054;4.110;2022-07-11T13:51:31;3.90;;;2.50;;
73239;SDS011;61452;40.054;4.110;2022-07-11T13:56:33;2.97;;;2.55;;
73239;SDS011;61452;40.054;4.110;2022-07-11T14:01:36;2.75;;;2.53;;
73239;SDS011;61452;40.054;4.110;2022-07-11T14:06:39;2.88;;;2.20;;
73239;SDS011;61452;40.054;4.110;2022-07-11T14:11:58;4.07;;;2.63;;
73239;SDS011;61452;40.054;4.110;2022-07-11T14:17:02;4.63;;;2.92;;
73239;SDS011;61452;40.054;4.110;2022-07-11T14:22:05;3.63;;;2.42;;
73239;SDS011;61452;40.054;4.110;2022-07-11T14:27:08;2.92;;;2.63;;
73239;SDS011;61452;40.054;4.110;2022-07-11T14:32:11;2.63;;;2.42;;
73239;SDS011;61452;40.054;4.110;2022-07-11T14:37:15;4.35;;;2.78;;
73239;SDS011;61452;40.054;4.110;2022-07-11T14:42:18;3.22;;;2.72;;
73239;SDS011;61452;40.054;4.110;2022-07-11T14:47:40;2.72;;;2.38;;
73239;SDS011;61452;40.054;4.110;2022-07-11T14:52:43;3.58;;;2.83;;
73239;SDS011;61452;40.054;4.110;2022-07-11T14:57:46;3.90;;;3.20;;
73239;SDS011;61452;40.054;4.110;2022-07-11T15:02:49;3.80;;;2.60;;
73239;SDS011;61452;40.054;4.110;2022-07-11T15:08:10;4.70;;;3.40;;
73239;SDS011;61452;40.054;4.110;2022-07-11T15:13:31;3.85;;;2.80;;
73239;SDS011;61452;40.054;4.110;2022-07-11T15:18:34;2.90;;;2.65;;
73239;SDS011;61452;40.054;4.110;2022-07-11T15:23:36;3.42;;;2.80;;
73239;SDS011;61452;40.054;4.110;2022-07-11T15:28:39;3.33;;;2.65;;
73239;SDS011;61452;40.054;4.110;2022-07-11T15:33:41;3.10;;;2.80;;
73239;SDS011;61452;40.054;4.110;2022-07-11T15:38:49;3.10;;;2.80;;
73239;SDS011;61452;40.054;4.110;2022-07-11T15:43:52;3.50;;;2.75;;
73239;SDS011;61452;40.054;4.110;2022-07-11T15:48:55;3.17;;;2.88;;
73239;SDS011;61452;40.054;4.110;2022-07-11T15:53:57;3.88;;;2.70;;
73239;SDS011;61452;40.054;4.110;2022-07-11T15:59:00;3.13;;;2.67;;
73239;SDS011;61452;40.054;4.110;2022-07-11T16:04:02;3.33;;;2.55;;
73239;SDS011;61452;40.054;4.110;2022-07-11T16:09:05;3.88;;;2.85;;
73239;SDS011;61452;40.054;4.110;2022-07-11T16:14:08;3.00;;;2.50;;
73239;SDS011;61452;40.054;4.110;2022-07-11T16:19:10;3.10;;;2.80;;
73239;SDS011;61452;40.054;4.110;2022-07-11T16:24:13;3.20;;;2.60;;
73239;SDS011;61452;40.054;4.110;2022-07-11T16:29:15;2.70;;;2.50;;
73239;SDS011;61452;40.054;4.110;2022-07-11T16:34:17;3.00;;;2.40;;
73239;SDS011;61452;40.054;4.110;2022-07-11T16:39:20;4.05;;;2.75;;
73239;SDS011;61452;40.054;4.110;2022-07-11T16:44:41;4.45;;;2.85;;
73239;SDS011;61452;40.054;4.110;2022-07-11T16:49:44;3.10;;;2.40;;
73239;SDS011;61452;40.054;4.110;2022-07-11T16:54:46;3.72;;;2.78;;
73239;SDS011;61452;40.054;4.110;2022-07-11T16:59:49;2.95;;;2.60;;
73239;SDS011;61452;40.054;4.110;2022-07-11T17:04:51;3.92;;;2.70;;
73239;SDS011;61452;40.054;4.110;2022-07-11T17:09:54;3.45;;;2.90;;
73239;SDS011;61452;40.054;4.110;2022-07-11T17:14:56;2.70;;;2.42;;
73239;SDS011;61452;40.054;4.110;2022-07-11T17:19:59;3.20;;;2.40;;
73239;SDS011;61452;40.054;4.110;2022-07-11T17:25:01;2.65;;;2.10;;
73239;SDS011;61452;40.054;4.110;2022-07-11T17:30:05;2.92;;;2.35;;
73239;SDS011;61452;40.054;4.110;2022-07-11T17:35:08;2.50;;;2.30;;
73239;SDS011;61452;40.054;4.110;2022-07-11T17:40:11;3.95;;;2.30;;
73239;SDS011;61452;40.054;4.110;2022-07-11T17:45:15;2.58;;;2.15;;
73239;SDS011;61452;40.054;4.110;2022-07-11T17:50:18;2.78;;;1.85;;
73239;SDS011;61452;40.054;4.110;2022-07-11T17:55:20;2.40;;;2.20;;
73239;SDS011;61452;40.054;4.110;2022-07-11T18:00:23;2.97;;;2.15;;
73239;SDS011;61452;40.054;4.110;2022-07-11T18:05:26;2.30;;;1.88;;
73239;SDS011;61452;40.054;4.110;2022-07-11T18:10:29;2.35;;;2.15;;
73239;SDS011;61452;40.054;4.110;2022-07-11T18:15:31;2.30;;;2.10;;
73239;SDS011;61452;40.054;4.110;2022-07-11T18:20:37;3.22;;;2.10;;
73239;SDS011;61452;40.054;4.110;2022-07-11T18:25:48;3.10;;;2.17;;
73239;SDS011;61452;40.054;4.110;2022-07-11T18:30:50;2.53;;;2.05;;
73239;SDS011;61452;40.054;4.110;2022-07-11T18:35:53;2.88;;;2.40;;
73239;SDS011;61452;40.054;4.110;2022-07-11T18:40:56;2.20;;;1.83;;
73239;SDS011;61452;40.054;4.110;2022-07-11T18:46:14;2.63;;;1.80;;
73239;SDS011;61452;40.054;4.110;2022-07-11T18:51:16;2.92;;;2.00;;
73239;SDS011;61452;40.054;4.110;2022-07-11T18:56:19;2.90;;;1.80;;
73239;SDS011;61452;40.054;4.110;2022-07-11T19:01:21;2.08;;;1.83;;
73239;SDS011;61452;40.054;4.110;2022-07-11T19:06:24;1.92;;;1.75;;
73239;SDS011;61452;40.054;4.110;2022-07-11T19:11:26;1.95;;;1.75;;
73239;SDS011;61452;40.054;4.110;2022-07-11T19:16:29;2.33;;;2.00;;
73239;SDS011;61452;40.054;4.110;2022-07-11T19:21:32;2.80;;;1.77;;
73239;SDS011;61452;40.054;4.110;2022-07-11T19:26:35;2.15;;;1.95;;
73239;SDS011;61452;40.054;4.110;2022-07-11T19:31:37;3.35;;;2.03;;
73239;SDS011;61452;40.054;4.110;2022-07-11T19:36:40;3.15;;;2.10;;
73239;SDS011;61452;40.054;4.110;2022-07-11T19:41:43;3.30;;;2.00;;
73239;SDS011;61452;40.054;4.110;2022-07-11T19:46:46;3.22;;;2.10;;
73239;SDS011;61452;40.054;4.110;2022-07-11T19:51:48;4.00;;;1.83;;
73239;SDS011;61452;40.054;4.110;2022-07-11T19:56:51;3.22;;;2.30;;
73239;SDS011;61452;40.054;4.110;2022-07-11T20:02:12;2.58;;;2.00;;
73239;SDS011;61452;40.054;4.110;2022-07-11T20:07:15;2.45;;;2.25;;
73239;SDS011;61452;40.054;4.110;2022-07-11T20:12:17;2.60;;;2.20;;
73239;SDS011;61452;40.054;4.110;2022-07-11T20:17:20;2.70;;;2.22;;
73239;SDS011;61452;40.054;4.110;2022-07-11T20:22:23;2.88;;;2.00;;
73239;SDS011;61452;40.054;4.110;2022-07-11T20:27:25;3.55;;;1.80;;
73239;SDS011;61452;40.054;4.110;2022-07-11T20:32:28;3.67;;;2.30;;
73239;SDS011;61452;40.054;4.110;2022-07-11T20:37:31;2.45;;;2.22;;
73239;SDS011;61452;40.054;4.110;2022-07-11T20:42:34;2.22;;;2.03;;
73239;SDS011;61452;40.054;4.110;2022-07-11T20:47:37;2.58;;;1.92;;
73239;SDS011;61452;40.054;4.110;2022-07-11T20:52:39;1.95;;;1.75;;
73239;SDS011;61452;40.054;4.110;2022-07-11T20:57:45;2.00;;;1.73;;
73239;SDS011;61452;40.054;4.110;2022-07-11T21:02:48;2.70;;;1.95;;
73239;SDS011;61452;40.054;4.110;2022-07-11T21:07:50;2.28;;;2.05;;
73239;SDS011;61452;40.054;4.110;2022-07-11T21:12:53;2.40;;;2.10;;
73239;SDS011;61452;40.054;4.110;2022-07-11T21:17:55;3.08;;;2.20;;
73239;SDS011;61452;40.054;4.110;2022-07-11T21:22:58;3.58;;;2.03;;
73239;SDS011;61452;40.054;4.110;2022-07-11T21:28:02;2.45;;;2.25;;
73239;SDS011;61452;40.054;4.110;2022-07-11T21:33:04;3.03;;;2.20;;
73239;SDS011;61452;40.054;4.110;2022-07-11T21:38:08;2.47;;;1.63;;
73239;SDS011;61452;40.054;4.110;2022-07-11T21:43:10;2.75;;;2.10;;
73239;SDS011;61452;40.054;4.110;2022-07-11T21:48:15;2.60;;;2.40;;
73239;SDS011;61452;40.054;4.110;2022-07-11T21:53:17;2.85;;;2.30;;
73239;SDS011;61452;40.054;4.110;2022-07-11T21:58:19;3.20;;;2.28;;
73239;SDS011;61452;40.054;4.110;2022-07-11T22:03:22;2.75;;;2.20;;
73239;SDS011;61452;40.054;4.110;2022-07-11T22:08:24;2.63;;;2.25;;
73239;SDS011;61452;40.054;4.110;2022-07-11T22:13:26;2.30;;;2.05;;
73239;SDS011;61452;40.054;4.110;2022-07-11T22:18:29;2.47;;;2.00;;
73239;SDS011;61452;40.054;4.110;2022-07-11T22:23:31;2.58;;;1.83;;
73239;SDS011;61452;40.054;4.110;2022-07-11T22:28:34;2.58;;;2.30;;
73239;SDS011;61452;40.054;4.110;2022-07-11T22:33:36;2.85;;;2.13;;
73239;SDS011;61452;40.054;4.110;2022-07-11T22:38:38;2.33;;;1.85;;
73239;SDS011;61452;40.054;4.110;2022-07-11T22:43:41;2.53;;;1.88;;
73239;SDS011;61452;40.054;4.110;2022-07-11T22:48:43;2.15;;;1.95;;
73239;SDS011;61452;40.054;4.110;2022-07-11T22:53:52;3.03;;;1.80;;
73239;SDS011;61452;40.054;4.110;2022-07-11T22:58:54;3.38;;;2.05;;
73239;SDS011;61452;40.054;4.110;2022-07-11T23:03:57;2.67;;;2.13;;
73239;SDS011;61452;40.054;4.110;2022-07-11T23:08:59;2.20;;;2.00;;
73239;SDS011;61452;40.054;4.110;2022-07-11T23:14:02;2.92;;;1.90;;
73239;SDS011;61452;40.054;4.110;2022-07-11T23:19:04;3.22;;;2.00;;
73239;SDS011;61452;40.054;4.110;2022-07-11T23:24:07;2.60;;;2.17;;
73239;SDS011;61452;40.054;4.110;2022-07-11T23:29:09;2.90;;;2.10;;
73239;SDS011;61452;40.054;4.110;2022-07-11T23:34:12;2.55;;;2.10;;
73239;SDS011;61452;40.054;4.110;2022-07-11T23:39:14;3.45;;;2.22;;
73239;SDS011;61452;40.054;4.110;2022-07-11T23:44:16;2.42;;;2.22;;
73239;SDS011;61452;40.054;4.110;2022-07-11T23:49:19;2.80;;;2.20;;
73239;SDS011;61452;40.054;4.110;2022-07-11T23:54:21;2.75;;;2.00;;
73239;SDS011;61452;40.054;4.110;2022-07-11T23:59:23;2.75;;;2.10;;
